Time;durP1;ratioP1;P1;durP2;ratioP2;P2;SDS_P1;SDS_P2;PMS_P1;PMS_P2;Temp;Humidity;BMP_temperature;BMP_pressure;BME280_temperature;BME280_humidity;BME280_pressure;Samples;Min_cycle;Max_cycle;Signal;HPM_P1;HPM_P2
2021/07/19 00:01:18;;;;;;;2.77;1.70;;;21.50;99.90;;;;;;4933904;29;20621;-81
2021/07/19 00:03:44;;;;;;;4.90;2.20;;;21.40;99.90;;;;;;4947692;28;20620;-81
2021/07/19 00:06:10;;;;;;;3.80;1.60;;;21.40;99.90;;;;;;4934266;29;20573;-81
2021/07/19 00:08:35;;;;;;;2.40;1.63;;;21.40;99.90;;;;;;4933596;29;20573;-80
2021/07/19 00:11:02;;;;;;;3.60;1.90;;;21.30;99.90;;;;;;4935831;29;20181;-80
2021/07/19 00:13:28;;;;;;;3.50;1.90;;;21.30;99.90;;;;;;4936330;29;20196;-81
2021/07/19 00:15:54;;;;;;;2.17;1.87;;;21.20;99.90;;;;;;4953251;28;20561;-82
2021/07/19 00:18:20;;;;;;;3.47;2.03;;;21.20;99.90;;;;;;4940708;29;20539;-81
2021/07/19 00:20:46;;;;;;;4.13;1.73;;;21.20;99.90;;;;;;4937737;29;20620;-82
2021/07/19 00:23:12;;;;;;;4.30;1.57;;;21.10;99.90;;;;;;4937623;29;20189;-82
2021/07/19 00:25:37;;;;;;;1.70;1.40;;;21.10;99.90;;;;;;4935683;29;20600;-82
2021/07/19 00:28:04;;;;;;;3.27;1.80;;;21.00;99.90;;;;;;4952519;28;20247;-82
2021/07/19 00:30:32;;;;;;;3.80;1.33;;;21.00;99.90;;;;;;4951730;28;20286;-81
2021/07/19 00:32:58;;;;;;;2.20;1.60;;;20.90;99.90;;;;;;4937487;29;20664;-81
2021/07/19 00:35:25;;;;;;;2.13;1.50;;;20.90;99.90;;;;;;4951265;28;20688;-81
2021/07/19 00:37:54;;;;;;;3.20;1.50;;;20.80;99.90;;;;;;4937245;29;21136;-81
2021/07/19 00:40:23;;;;;;;1.80;1.40;;;20.80;99.90;;;;;;4937061;29;20612;-81
2021/07/19 00:42:49;;;;;;;2.50;1.40;;;20.80;99.90;;;;;;4936351;29;20205;-81
2021/07/19 00:45:19;;;;;;;2.33;1.60;;;20.70;99.90;;;;;;4919911;29;20611;-81
2021/07/19 00:47:47;;;;;;;2.70;1.20;;;20.70;99.90;;;;;;4937065;29;20575;-80
2021/07/19 00:50:13;;;;;;;1.97;1.30;;;20.60;99.90;;;;;;4937335;29;20577;-81
2021/07/19 00:52:41;;;;;;;3.57;1.83;;;20.60;99.90;;;;;;4935667;29;20699;-81
2021/07/19 00:55:09;;;;;;;2.17;1.80;;;20.60;99.90;;;;;;4955339;28;20604;-81
2021/07/19 00:57:38;;;;;;;3.23;1.40;;;20.60;99.90;;;;;;4920889;29;20191;-81
2021/07/19 01:00:09;;;;;;;2.10;1.60;;;20.50;99.90;;;;;;4935978;29;20656;-80
2021/07/19 01:02:40;;;;;;;4.73;1.40;;;20.50;99.90;;;;;;4919337;29;20978;-81
2021/07/19 01:05:10;;;;;;;4.07;2.00;;;20.40;99.90;;;;;;4951201;28;20573;-80
2021/07/19 01:07:39;;;;;;;3.03;1.67;;;20.40;99.90;;;;;;4934261;29;20576;-82
2021/07/19 01:10:13;;;;;;;6.60;2.30;;;20.40;99.90;;;;;;4935352;29;20565;-80
2021/07/19 01:12:43;;;;;;;3.20;1.67;;;20.30;99.90;;;;;;4951069;29;20592;-80
2021/07/19 01:15:10;;;;;;;2.53;2.00;;;20.30;99.90;;;;;;4935499;29;20685;-82
2021/07/19 01:17:38;;;;;;;2.23;1.70;;;20.30;99.90;;;;;;4936538;29;20628;-81
2021/07/19 01:20:06;;;;;;;2.40;1.40;;;20.20;99.90;;;;;;4950762;28;21132;-81
2021/07/19 01:23:10;;;;;;;2.57;1.90;;;20.20;99.90;;;;;;4918643;29;20605;-81
2021/07/19 01:26:09;;;;;;;3.10;2.27;;;20.20;99.90;;;;;;4935036;29;20930;-82
2021/07/19 01:28:50;;;;;;;4.33;2.40;;;20.10;99.90;;;;;;4936335;29;20602;-82
2021/07/19 01:31:21;;;;;;;5.67;1.80;;;20.10;99.90;;;;;;4919038;29;20584;-82
2021/07/19 01:33:51;;;;;;;3.80;1.60;;;20.10;99.90;;;;;;4953131;29;20593;-82
2021/07/19 01:36:22;;;;;;;2.13;1.57;;;20.10;99.90;;;;;;4950495;28;20572;-82
2021/07/19 01:39:31;;;;;;;3.43;1.90;;;20.10;99.90;;;;;;4914968;29;20644;-82
2021/07/19 01:42:03;;;;;;;3.17;1.87;;;20.10;99.90;;;;;;4945813;29;20646;-82
2021/07/19 01:44:30;;;;;;;2.90;2.40;;;20.00;99.90;;;;;;4934958;29;20591;-82
2021/07/19 01:46:59;;;;;;;1.93;1.43;;;20.00;99.90;;;;;;4950692;28;21165;-82
2021/07/19 01:49:26;;;;;;;4.60;2.10;;;20.00;99.90;;;;;;4933521;29;20581;-82
2021/07/19 01:51:55;;;;;;;2.13;1.37;;;20.00;99.90;;;;;;4934438;29;21009;-82
2021/07/19 01:54:22;;;;;;;2.90;1.80;;;19.90;99.90;;;;;;4934654;29;20577;-80
2021/07/19 01:56:51;;;;;;;4.10;2.27;;;19.90;99.90;;;;;;4934247;29;20704;-81
2021/07/19 01:59:18;;;;;;;2.97;1.87;;;19.90;99.90;;;;;;4934605;29;20660;-81
2021/07/19 02:01:57;;;;;;;2.37;1.77;;;19.80;99.90;;;;;;4917929;29;21047;-81
2021/07/19 02:04:23;;;;;;;3.13;1.80;;;19.80;99.90;;;;;;4934501;29;20584;-81
2021/07/19 02:06:50;;;;;;;3.90;1.80;;;19.80;99.90;;;;;;4950460;28;20608;-81
2021/07/19 02:09:17;;;;;;;2.30;2.10;;;19.80;99.90;;;;;;4923274;29;21279;-81
2021/07/19 02:12:07;;;;;;;4.73;2.30;;;19.80;99.90;;;;;;4933796;29;20715;-81
2021/07/19 02:14:42;;;;;;;3.00;2.07;;;19.70;99.90;;;;;;4943746;29;20581;-81
2021/07/19 02:17:15;;;;;;;4.23;2.30;;;19.70;99.90;;;;;;4934801;29;20580;-81
2021/07/19 02:19:46;;;;;;;3.50;2.23;;;19.70;99.90;;;;;;4950282;29;20576;-81
2021/07/19 02:22:18;;;;;;;2.97;1.80;;;19.70;99.90;;;;;;4948699;29;20783;-81
2021/07/19 02:25:00;;;;;;;3.30;2.50;;;19.70;99.90;;;;;;4933031;29;20569;-81
2021/07/19 02:27:37;;;;;;;2.93;1.70;;;19.70;99.90;;;;;;4932913;29;20592;-81
2021/07/19 02:30:07;;;;;;;3.50;2.50;;;19.60;99.90;;;;;;4933616;29;20581;-81
2021/07/19 02:32:38;;;;;;;2.97;1.93;;;19.60;99.90;;;;;;4933700;29;20712;-81
2021/07/19 02:35:06;;;;;;;2.10;1.90;;;19.60;99.90;;;;;;4933768;29;20569;-81
2021/07/19 02:37:39;;;;;;;3.47;2.47;;;19.60;99.90;;;;;;4949008;29;20925;-81
2021/07/19 02:40:21;;;;;;;4.90;2.67;;;19.60;99.90;;;;;;4933682;29;20644;-81
2021/07/19 02:42:51;;;;;;;2.97;2.10;;;19.60;99.90;;;;;;4917852;29;20616;-81
2021/07/19 02:45:19;;;;;;;3.70;2.50;;;19.50;99.90;;;;;;4954587;28;20569;-81
2021/07/19 02:47:50;;;;;;;6.53;2.53;;;19.50;99.90;;;;;;4933599;29;20733;-81
2021/07/19 02:50:24;;;;;;;3.90;1.70;;;19.50;99.90;;;;;;4933287;29;20588;-81
2021/07/19 02:52:52;;;;;;;6.23;2.17;;;19.50;99.90;;;;;;4934758;29;20976;-81
2021/07/19 02:55:19;;;;;;;5.40;1.90;;;19.50;99.90;;;;;;4949532;28;20612;-81
2021/07/19 02:57:47;;;;;;;3.60;1.90;;;19.40;99.90;;;;;;4933511;29;20584;-81
2021/07/19 03:00:16;;;;;;;2.33;2.03;;;19.40;99.90;;;;;;4933086;29;20640;-81
2021/07/19 03:02:57;;;;;;;3.70;2.70;;;19.40;99.90;;;;;;4933495;29;21032;-83
2021/07/19 03:05:28;;;;;;;4.47;2.37;;;19.40;99.90;;;;;;4934757;29;20599;-81
2021/07/19 03:07:58;;;;;;;3.10;2.30;;;19.40;99.90;;;;;;4917020;29;20573;-81
2021/07/19 03:10:50;;;;;;;2.87;1.87;;;19.40;99.90;;;;;;4934213;29;20695;-81
2021/07/19 03:13:24;;;;;;;2.90;1.73;;;19.40;99.90;;;;;;4936262;29;20621;-81
2021/07/19 03:15:54;;;;;;;2.37;1.80;;;19.30;99.90;;;;;;4937063;29;20573;-80
2021/07/19 03:18:22;;;;;;;2.17;1.93;;;19.30;99.90;;;;;;4936006;29;20587;-80
2021/07/19 03:20:50;;;;;;;3.17;2.33;;;19.30;99.90;;;;;;4935980;29;20617;-80
2021/07/19 03:23:21;;;;;;;3.10;2.53;;;19.20;99.90;;;;;;4939593;29;20638;-80
2021/07/19 03:25:49;;;;;;;2.80;2.07;;;19.20;99.90;;;;;;4934340;29;20600;-81
2021/07/19 03:28:18;;;;;;;4.33;2.10;;;19.20;99.90;;;;;;4933759;29;20588;-80
2021/07/19 03:30:49;;;;;;;16.40;2.83;;;19.20;99.90;;;;;;4932773;29;21226;-81
2021/07/19 03:33:15;;;;;;;4.00;2.13;;;19.10;99.90;;;;;;4933290;29;20723;-80
2021/07/19 03:35:42;;;;;;;4.77;3.07;;;19.10;99.90;;;;;;4949966;28;20572;-80
2021/07/19 03:38:13;;;;;;;6.33;2.33;;;19.10;99.90;;;;;;4918652;29;20573;-81
2021/07/19 03:41:00;;;;;;;2.50;1.80;;;19.10;99.90;;;;;;4934123;29;20969;-80
2021/07/19 03:43:31;;;;;;;4.03;2.70;;;19.00;99.90;;;;;;4932921;29;20955;-81
2021/07/19 03:45:57;;;;;;;4.43;2.60;;;19.00;99.90;;;;;;4932958;29;20589;-81
2021/07/19 03:48:24;;;;;;;2.70;2.17;;;19.00;99.90;;;;;;4934275;29;20569;-81
2021/07/19 03:50:51;;;;;;;3.33;2.47;;;19.00;99.90;;;;;;4936411;29;20664;-81
2021/07/19 03:53:18;;;;;;;2.80;1.90;;;19.00;99.90;;;;;;4936676;29;20616;-82
2021/07/19 03:55:57;;;;;;;3.17;2.47;;;19.00;99.90;;;;;;4936753;29;20583;-81
2021/07/19 03:58:24;;;;;;;3.00;2.40;;;19.00;99.90;;;;;;4939961;29;20581;-80
2021/07/19 04:00:53;;;;;;;2.73;2.50;;;19.00;99.90;;;;;;4936563;29;20669;-81
2021/07/19 04:03:26;;;;;;;3.63;2.20;;;19.00;99.90;;;;;;4936504;29;20625;-81
2021/07/19 04:05:59;;;;;;;6.43;2.20;;;19.00;99.90;;;;;;4920946;29;20664;-81
2021/07/19 04:08:34;;;;;;;3.37;2.27;;;18.90;99.90;;;;;;4920690;29;20836;-81
2021/07/19 04:11:02;;;;;;;4.87;2.57;;;18.90;99.90;;;;;;4937921;29;20577;-82
2021/07/19 04:13:30;;;;;;;3.20;2.90;;;18.90;99.90;;;;;;4936289;29;20603;-82
2021/07/19 04:15:59;;;;;;;3.60;2.10;;;18.90;99.90;;;;;;4951886;28;20603;-82
2021/07/19 04:18:26;;;;;;;2.87;2.67;;;18.90;99.90;;;;;;4935447;29;20585;-82
2021/07/19 04:20:55;;;;;;;2.80;2.53;;;18.90;99.90;;;;;;4936497;29;20711;-80
2021/07/19 04:23:24;;;;;;;5.53;2.50;;;18.90;99.90;;;;;;4936484;29;20607;-81
2021/07/19 04:25:59;;;;;;;4.07;2.43;;;18.90;99.90;;;;;;4936242;29;20680;-81
2021/07/19 04:28:25;;;;;;;3.70;2.70;;;18.90;99.90;;;;;;4935678;29;20599;-82
2021/07/19 04:30:52;;;;;;;4.23;2.67;;;18.90;99.90;;;;;;4935727;29;20726;-82
2021/07/19 04:33:19;;;;;;;4.13;2.60;;;19.00;99.90;;;;;;4951974;28;20640;-81
2021/07/19 04:35:46;;;;;;;3.90;3.13;;;19.00;99.90;;;;;;4942829;29;20565;-80
2021/07/19 04:38:18;;;;;;;4.80;2.50;;;19.00;99.90;;;;;;4922555;29;21200;-81
2021/07/19 04:41:02;;;;;;;3.50;2.53;;;19.00;99.90;;;;;;4940127;29;20620;-81
2021/07/19 04:43:28;;;;;;;3.03;2.33;;;19.00;99.90;;;;;;4940278;29;21040;-81
2021/07/19 04:45:55;;;;;;;4.50;2.33;;;19.10;99.90;;;;;;4939715;29;20688;-82
2021/07/19 04:48:21;;;;;;;4.03;3.00;;;19.10;99.90;;;;;;4941730;29;20569;-81
2021/07/19 04:50:48;;;;;;;4.00;2.63;;;19.10;99.90;;;;;;4941244;29;20573;-82
2021/07/19 04:53:14;;;;;;;3.63;2.47;;;19.20;99.90;;;;;;4941686;29;21214;-81
2021/07/19 04:55:44;;;;;;;3.63;2.40;;;19.20;99.90;;;;;;4940138;29;20959;-81
2021/07/19 04:58:13;;;;;;;6.47;2.90;;;19.40;99.90;;;;;;4939381;29;20591;-82
2021/07/19 05:00:39;;;;;;;2.90;2.20;;;19.60;99.90;;;;;;4922014;29;20624;-81
2021/07/19 05:03:08;;;;;;;3.00;1.80;;;19.70;99.90;;;;;;4953060;28;20639;-81
2021/07/19 05:05:35;;;;;;;2.80;2.10;;;20.00;99.90;;;;;;4941897;29;20591;-82
2021/07/19 05:08:02;;;;;;;4.77;2.80;;;20.20;99.90;;;;;;4956538;28;20596;-77
2021/07/19 05:10:29;;;;;;;5.13;2.40;;;20.40;99.90;;;;;;4961855;28;20615;-76
2021/07/19 05:12:58;;;;;;;4.07;2.63;;;20.50;99.90;;;;;;4973328;28;20610;-75
2021/07/19 05:15:24;;;;;;;5.87;3.13;;;20.50;99.90;;;;;;4974666;28;20583;-75
2021/07/19 05:17:50;;;;;;;5.20;4.00;;;20.60;99.90;;;;;;4975074;28;20582;-76
2021/07/19 05:20:18;;;;;;;4.40;3.30;;;20.60;99.90;;;;;;4973081;28;20589;-76
2021/07/19 05:22:51;;;;;;;4.83;3.30;;;20.60;99.90;;;;;;4973836;28;20266;-76
2021/07/19 05:25:25;;;;;;;3.07;2.80;;;20.70;99.90;;;;;;4972460;28;20610;-76
2021/07/19 05:28:04;;;;;;;4.03;3.63;;;20.70;99.90;;;;;;4975065;28;20634;-76
2021/07/19 05:30:30;;;;;;;3.83;3.43;;;20.80;99.90;;;;;;4974295;28;20567;-76
2021/07/19 05:32:56;;;;;;;6.57;3.80;;;20.80;99.90;;;;;;4973592;28;20617;-76
2021/07/19 05:35:22;;;;;;;5.33;4.20;;;20.90;99.90;;;;;;4957244;28;20581;-76
2021/07/19 05:37:49;;;;;;;3.20;2.90;;;20.90;99.90;;;;;;4973056;28;20583;-76
2021/07/19 05:40:15;;;;;;;5.10;3.80;;;21.00;99.90;;;;;;4973473;28;20571;-76
2021/07/19 05:42:41;;;;;;;3.80;3.37;;;21.00;99.90;;;;;;4978557;28;20591;-80
2021/07/19 05:45:11;;;;;;;4.37;3.50;;;21.20;99.90;;;;;;4977330;28;20703;-80
2021/07/19 05:47:37;;;;;;;7.27;4.33;;;21.30;99.90;;;;;;4974747;28;20578;-80
2021/07/19 05:50:06;;;;;;;5.97;4.20;;;21.40;99.90;;;;;;4979100;28;20567;-80
2021/07/19 05:52:32;;;;;;;3.57;3.27;;;21.60;99.90;;;;;;4974028;28;21178;-79
2021/07/19 05:54:58;;;;;;;5.30;4.23;;;21.70;99.90;;;;;;4973663;28;20591;-80
2021/07/19 05:57:25;;;;;;;5.93;4.70;;;21.90;99.90;;;;;;4973480;28;20634;-80
2021/07/19 05:59:56;;;;;;;5.80;5.33;;;22.00;99.90;;;;;;4957908;28;21193;-80
2021/07/19 06:02:22;;;;;;;5.67;4.67;;;22.10;99.90;;;;;;4987615;28;20642;-79
2021/07/19 06:04:48;;;;;;;5.63;4.83;;;22.30;99.90;;;;;;4983676;28;20578;-79
2021/07/19 06:07:13;;;;;;;5.10;4.70;;;22.40;99.90;;;;;;4978567;28;20579;-80
2021/07/19 06:09:39;;;;;;;10.63;5.10;;;22.60;99.90;;;;;;4980330;28;20221;-80
2021/07/19 06:12:05;;;;;;;5.83;5.20;;;22.70;99.90;;;;;;4980743;28;20204;-80
2021/07/19 06:14:31;;;;;;;6.10;5.50;;;22.80;99.90;;;;;;4977183;28;20191;-80
2021/07/19 06:16:56;;;;;;;6.53;5.87;;;22.90;99.90;;;;;;4978784;28;20594;-80
2021/07/19 06:19:22;;;;;;;6.87;5.47;;;22.90;99.90;;;;;;4976152;28;20644;-79
2021/07/19 06:21:48;;;;;;;5.40;4.90;;;23.00;99.90;;;;;;4974030;28;20210;-80
2021/07/19 06:24:13;;;;;;;6.07;5.57;;;23.10;99.90;;;;;;4957293;28;20178;-79
2021/07/19 06:26:39;;;;;;;6.63;5.93;;;23.10;99.90;;;;;;4956909;29;20210;-80
2021/07/19 06:29:05;;;;;;;6.50;5.90;;;23.20;99.90;;;;;;4970169;28;20199;-80
2021/07/19 06:31:32;;;;;;;5.73;4.63;;;23.20;99.90;;;;;;4970269;28;20187;-80
2021/07/19 06:33:58;;;;;;;6.60;5.67;;;23.30;99.90;;;;;;4972170;28;21018;-80
2021/07/19 06:36:25;;;;;;;6.03;5.23;;;23.30;99.90;;;;;;4972050;28;20933;-79
2021/07/19 06:38:51;;;;;;;6.03;4.57;;;23.50;99.90;;;;;;4972563;28;21131;-79
2021/07/19 06:41:17;;;;;;;5.00;4.50;;;23.50;99.90;;;;;;4972695;28;20618;-79
2021/07/19 06:43:42;;;;;;;3.97;3.53;;;23.60;99.90;;;;;;4972696;28;20718;-79
2021/07/19 06:46:10;;;;;;;10.40;5.80;;;23.70;99.90;;;;;;4977997;28;20199;-81
2021/07/19 06:48:36;;;;;;;5.80;5.20;;;23.70;99.90;;;;;;4975493;28;20171;-80
2021/07/19 06:51:03;;;;;;;5.30;4.80;;;24.00;99.90;;;;;;4971084;28;20657;-80
2021/07/19 06:53:29;;;;;;;5.60;4.20;;;24.20;99.90;;;;;;4953592;28;20616;-81
2021/07/19 06:55:55;;;;;;;4.50;4.07;;;24.80;99.90;;;;;;4956943;28;20583;-81
2021/07/19 06:58:21;;;;;;;4.23;3.80;;;25.50;99.90;;;;;;4973340;28;20690;-82
2021/07/19 07:00:49;;;;;;;5.07;3.90;;;26.00;99.90;;;;;;4951838;28;20625;-82
2021/07/19 07:03:15;;;;;;;3.93;3.50;;;26.70;99.90;;;;;;4943266;29;20612;-80
2021/07/19 07:05:40;;;;;;;3.87;3.57;;;27.40;99.90;;;;;;4942643;29;20603;-83
2021/07/19 07:08:06;;;;;;;4.67;4.20;;;27.70;99.90;;;;;;4930548;28;20174;-81
2021/07/19 07:10:32;;;;;;;5.73;4.00;;;27.80;99.90;;;;;;4972396;28;20172;-81
2021/07/19 07:12:58;;;;;;;5.20;4.60;;;27.90;99.90;;;;;;4972526;28;20323;-82
2021/07/19 07:15:23;;;;;;;5.00;4.50;;;27.90;99.90;;;;;;4972980;28;20659;-81
2021/07/19 07:17:50;;;;;;;4.80;4.30;;;27.70;99.90;;;;;;4950110;28;20252;-82
2021/07/19 07:20:16;;;;;;;4.90;3.70;;;27.60;99.90;;;;;;4965874;28;20286;-81
2021/07/19 07:22:42;;;;;;;5.20;4.70;;;27.40;99.90;;;;;;4949223;28;20604;-81
2021/07/19 07:25:11;;;;;;;4.67;3.97;;;27.20;99.90;;;;;;4949860;28;20587;-80
2021/07/19 07:27:37;;;;;;;6.20;4.50;;;27.00;99.90;;;;;;4976494;28;20581;-80
2021/07/19 07:30:08;;;;;;;5.23;3.67;;;26.90;99.90;;;;;;4981933;28;20575;-78
2021/07/19 07:32:35;;;;;;;5.60;5.10;;;26.80;99.90;;;;;;4981299;28;20595;-80
2021/07/19 07:35:03;;;;;;;4.70;4.17;;;26.60;99.90;;;;;;4968547;28;20595;-80
2021/07/19 07:37:30;;;;;;;5.20;4.20;;;26.50;99.90;;;;;;4958032;28;20952;-78
2021/07/19 07:39:56;;;;;;;4.63;4.13;;;26.40;99.90;;;;;;4957866;28;20583;-75
2021/07/19 07:42:22;;;;;;;4.70;4.30;;;26.30;99.90;;;;;;4952815;28;20730;-75
2021/07/19 07:44:48;;;;;;;6.20;4.60;;;26.20;99.90;;;;;;4953412;28;20590;-77
2021/07/19 07:47:14;;;;;;;4.73;4.23;;;26.10;99.90;;;;;;4968409;28;20700;-75
2021/07/19 07:49:40;;;;;;;5.30;4.20;;;26.10;99.90;;;;;;4967833;28;20560;-76
2021/07/19 07:52:07;;;;;;;4.73;3.97;;;26.10;99.90;;;;;;4951770;28;20200;-76
2021/07/19 07:54:33;;;;;;;5.60;4.50;;;26.20;99.90;;;;;;4952971;29;20572;-78
2021/07/19 07:56:59;;;;;;;4.90;4.40;;;26.30;99.90;;;;;;4967624;28;20587;-77
2021/07/19 07:59:25;;;;;;;5.13;4.63;;;26.30;99.90;;;;;;4959322;28;20675;-77
2021/07/19 08:01:51;;;;;;;5.47;4.73;;;26.40;99.90;;;;;;4955282;28;20203;-78
2021/07/19 08:04:17;;;;;;;4.47;4.07;;;26.40;99.90;;;;;;4955398;28;20982;-77
2021/07/19 08:06:44;;;;;;;6.80;6.10;;;26.30;99.90;;;;;;4970728;28;20705;-77
2021/07/19 08:09:10;;;;;;;6.37;5.77;;;26.20;99.90;;;;;;4972434;28;20629;-77
2021/07/19 08:11:35;;;;;;;7.07;4.40;;;25.90;99.90;;;;;;4971658;28;20702;-77
2021/07/19 08:14:01;;;;;;;5.03;4.50;;;25.80;99.90;;;;;;4972319;28;20694;-78
2021/07/19 08:16:27;;;;;;;5.20;4.63;;;25.70;99.90;;;;;;4974409;28;20179;-77
2021/07/19 08:18:53;;;;;;;9.43;6.07;;;25.60;99.90;;;;;;4970543;28;20187;-78
2021/07/19 08:21:18;;;;;;;7.33;5.80;;;25.60;99.90;;;;;;4970572;28;20192;-78
2021/07/19 08:23:44;;;;;;;5.07;4.57;;;25.40;99.90;;;;;;4970570;28;20198;-77
2021/07/19 08:26:11;;;;;;;5.50;4.43;;;25.30;99.90;;;;;;4951965;28;20776;-77
2021/07/19 08:28:38;;;;;;;6.23;4.80;;;25.20;99.90;;;;;;4930640;29;21188;-77
2021/07/19 08:31:03;;;;;;;5.83;5.23;;;25.10;99.90;;;;;;4932939;29;20605;-78
2021/07/19 08:33:30;;;;;;;5.40;4.80;;;25.00;99.90;;;;;;4931292;29;20605;-78
2021/07/19 08:35:56;;;;;;;5.10;4.70;;;24.90;99.90;;;;;;4935333;29;20632;-78
2021/07/19 08:38:21;;;;;;;7.07;5.37;;;24.80;99.90;;;;;;4934905;29;20228;-78
2021/07/19 08:40:48;;;;;;;4.80;4.40;;;24.60;99.90;;;;;;4935218;29;20748;-77
2021/07/19 08:43:14;;;;;;;6.17;5.60;;;24.60;99.90;;;;;;4935476;29;20616;-78
2021/07/19 08:45:40;;;;;;;6.20;4.70;;;24.40;99.90;;;;;;4936950;29;20615;-77
2021/07/19 08:48:06;;;;;;;5.47;4.53;;;24.30;99.90;;;;;;4937365;29;21124;-79
2021/07/19 08:50:33;;;;;;;6.10;5.23;;;24.40;99.90;;;;;;4937990;28;20986;-77
2021/07/19 08:52:59;;;;;;;5.23;4.60;;;24.40;99.90;;;;;;4958709;28;20666;-77
2021/07/19 08:55:25;;;;;;;6.27;5.30;;;24.40;99.90;;;;;;4954597;29;20682;-75
2021/07/19 08:57:51;;;;;;;7.43;4.80;;;24.50;99.90;;;;;;4956362;28;20679;-76
2021/07/19 09:00:20;;;;;;;4.73;4.20;;;24.50;99.90;;;;;;4954428;29;21038;-76
2021/07/19 09:02:46;;;;;;;6.50;5.53;;;24.60;99.90;;;;;;4947113;28;20701;-77
2021/07/19 09:05:13;;;;;;;5.33;4.83;;;24.70;99.90;;;;;;4965974;28;20641;-77
2021/07/19 09:07:39;;;;;;;5.13;4.63;;;24.70;99.90;;;;;;4975006;28;20571;-76
2021/07/19 09:10:06;;;;;;;5.97;4.57;;;24.80;99.90;;;;;;4974927;28;20962;-77
2021/07/19 09:12:39;;;;;;;8.73;6.90;;;24.90;99.90;;;;;;4959036;28;20990;-77
2021/07/19 09:15:10;;;;;;;8.50;6.70;;;24.90;99.90;;;;;;4974078;28;21122;-78
2021/07/19 09:17:36;;;;;;;7.73;7.00;;;24.90;99.90;;;;;;4973634;28;20578;-77
2021/07/19 09:20:07;;;;;;;6.13;5.57;;;24.90;99.90;;;;;;4974728;28;21115;-77
2021/07/19 09:22:34;;;;;;;7.57;5.77;;;25.00;99.90;;;;;;4973387;28;21125;-78
2021/07/19 09:25:07;;;;;;;6.80;6.10;;;25.00;99.90;;;;;;4961839;28;20585;-77
2021/07/19 09:27:32;;;;;;;7.07;6.30;;;25.10;99.90;;;;;;4935133;29;20581;-77
2021/07/19 09:29:58;;;;;;;7.00;6.30;;;25.10;99.90;;;;;;4951738;29;20582;-77
2021/07/19 09:32:24;;;;;;;7.30;6.60;;;25.10;99.90;;;;;;4935020;29;20231;-77
2021/07/19 09:34:50;;;;;;;7.60;6.90;;;25.20;99.90;;;;;;4934743;29;20589;-76
2021/07/19 09:37:16;;;;;;;8.00;7.30;;;25.20;99.90;;;;;;4934714;29;20259;-77
2021/07/19 09:39:56;;;;;;;8.37;7.20;;;25.20;99.90;;;;;;4950618;28;20578;-77
2021/07/19 09:42:26;;;;;;;11.27;7.47;;;25.10;99.90;;;;;;4918091;29;21021;-77
2021/07/19 09:44:57;;;;;;;8.00;7.30;;;25.20;99.90;;;;;;4935868;29;20636;-77
2021/07/19 09:47:38;;;;;;;7.30;6.60;;;25.30;99.90;;;;;;4935761;29;20569;-77
2021/07/19 09:50:13;;;;;;;8.23;7.23;;;25.30;99.90;;;;;;4950437;29;20584;-78
2021/07/19 09:52:41;;;;;;;7.07;6.37;;;25.40;99.90;;;;;;4934433;29;20627;-78
2021/07/19 09:55:12;;;;;;;9.50;6.90;;;25.50;99.90;;;;;;4935814;29;20575;-78
2021/07/19 09:57:38;;;;;;;7.30;6.70;;;25.60;99.90;;;;;;4936087;29;20562;-78
2021/07/19 10:00:04;;;;;;;7.33;6.47;;;25.70;99.90;;;;;;4960528;28;20590;-78
2021/07/19 10:02:40;;;;;;;7.50;6.80;;;25.80;99.90;;;;;;4974449;28;20222;-77
2021/07/19 10:05:08;;;;;;;8.77;7.13;;;25.90;99.90;;;;;;4974036;28;20571;-78
2021/07/19 10:07:35;;;;;;;7.40;6.70;;;26.00;99.90;;;;;;4972927;28;20603;-77
2021/07/19 10:10:07;;;;;;;6.50;5.87;;;26.00;99.80;;;;;;4972334;28;21122;-77
2021/07/19 10:12:33;;;;;;;8.00;6.67;;;26.10;99.80;;;;;;4972934;28;20598;-78
2021/07/19 10:15:01;;;;;;;8.03;7.20;;;26.10;99.70;;;;;;4973589;28;20568;-78
2021/07/19 10:17:29;;;;;;;8.97;8.10;;;26.10;99.30;;;;;;4940144;28;20686;-78
2021/07/19 10:19:56;;;;;;;7.70;6.87;;;26.10;99.40;;;;;;4972045;28;21146;-77
2021/07/19 10:22:22;;;;;;;7.93;7.13;;;26.10;99.70;;;;;;4940248;28;21054;-78
2021/07/19 10:24:48;;;;;;;8.43;6.77;;;26.10;99.10;;;;;;4967795;28;20628;-77
2021/07/19 10:27:22;;;;;;;9.00;8.13;;;26.10;99.10;;;;;;4954356;28;20604;-78
2021/07/19 10:29:49;;;;;;;8.83;7.93;;;26.10;99.10;;;;;;4968781;28;20564;-78
2021/07/19 10:32:18;;;;;;;9.20;7.97;;;26.10;99.10;;;;;;4969122;28;20615;-79
2021/07/19 10:34:48;;;;;;;7.23;6.57;;;26.20;99.20;;;;;;4954278;28;20576;-79
2021/07/19 10:37:25;;;;;;;10.37;7.80;;;26.30;99.40;;;;;;4954348;28;21108;-79
2021/07/19 10:39:55;;;;;;;9.53;8.53;;;26.50;99.30;;;;;;4969831;28;20591;-79
2021/07/19 10:42:32;;;;;;;9.47;8.20;;;26.60;99.30;;;;;;4956807;29;20683;-79
2021/07/19 10:45:16;;;;;;;9.80;8.80;;;26.80;99.10;;;;;;4969163;28;20913;-78
2021/07/19 10:47:52;;;;;;;10.43;9.43;;;26.90;98.40;;;;;;4968549;28;20790;-78
2021/07/19 10:50:21;;;;;;;9.93;8.93;;;27.00;97.90;;;;;;4972005;28;20610;-78
2021/07/19 10:52:48;;;;;;;11.70;10.60;;;27.10;98.10;;;;;;4971909;28;21055;-78
2021/07/19 10:55:29;;;;;;;10.80;9.80;;;27.30;97.80;;;;;;4972000;28;20574;-78
2021/07/19 10:58:06;;;;;;;11.67;10.50;;;27.40;97.30;;;;;;4971231;28;20646;-78
2021/07/19 11:00:45;;;;;;;10.17;9.20;;;27.50;97.10;;;;;;4971954;28;20650;-78
2021/07/19 11:03:14;;;;;;;10.03;9.13;;;27.60;97.10;;;;;;4955864;28;20626;-78
2021/07/19 11:05:45;;;;;;;10.30;9.40;;;27.70;97.10;;;;;;4971975;28;20586;-79
2021/07/19 11:08:25;;;;;;;11.27;10.17;;;27.80;96.60;;;;;;4973145;28;20579;-79
2021/07/19 11:10:57;;;;;;;11.33;10.23;;;27.90;96.30;;;;;;4972439;28;20927;-79
2021/07/19 11:13:34;;;;;;;10.20;9.33;;;27.90;96.00;;;;;;4973681;28;20619;-79
2021/07/19 11:16:12;;;;;;;11.50;10.40;;;27.80;95.90;;;;;;4973500;28;20650;-79
2021/07/19 11:18:38;;;;;;;11.40;10.37;;;27.90;95.70;;;;;;4972751;28;20662;-78
2021/07/19 11:21:04;;;;;;;10.33;9.23;;;27.80;95.20;;;;;;4959297;29;20632;-78
2021/07/19 11:23:38;;;;;;;9.90;8.90;;;27.80;95.30;;;;;;4953109;29;20208;-77
2021/07/19 11:26:17;;;;;;;10.87;9.77;;;27.70;94.90;;;;;;4953946;29;20598;-78
2021/07/19 11:28:43;;;;;;;10.47;9.40;;;27.70;94.80;;;;;;4955553;28;20919;-80
2021/07/19 11:31:13;;;;;;;9.40;8.50;;;27.70;94.60;;;;;;4953302;29;20642;-77
2021/07/19 11:33:56;;;;;;;11.50;10.40;;;27.60;94.40;;;;;;4953534;29;20192;-78
2021/07/19 11:36:46;;;;;;;8.60;7.80;;;27.70;94.60;;;;;;4954472;29;20622;-77
2021/07/19 11:39:20;;;;;;;9.63;8.57;;;27.80;94.70;;;;;;4952584;29;20587;-78
2021/07/19 11:42:01;;;;;;;8.60;7.80;;;27.90;94.70;;;;;;4967872;28;20630;-78
2021/07/19 11:44:28;;;;;;;9.87;9.00;;;28.10;94.90;;;;;;4953373;28;20639;-78
2021/07/19 11:46:57;;;;;;;9.80;8.20;;;28.30;94.50;;;;;;4951670;29;20584;-78
2021/07/19 11:49:24;;;;;;;8.53;7.73;;;28.40;94.10;;;;;;4951839;29;20581;-78
2021/07/19 11:51:50;;;;;;;9.10;8.30;;;28.60;94.00;;;;;;4950834;29;21195;-77
2021/07/19 11:54:18;;;;;;;9.50;8.70;;;28.70;93.90;;;;;;4952641;29;20577;-78
2021/07/19 11:56:52;;;;;;;8.63;7.83;;;28.80;93.20;;;;;;4968019;28;20580;-78
2021/07/19 11:59:22;;;;;;;9.17;8.37;;;28.80;92.70;;;;;;4959310;28;20593;-77
2021/07/19 12:01:58;;;;;;;9.10;8.30;;;28.90;92.40;;;;;;4971253;28;20631;-77
2021/07/19 12:04:39;;;;;;;9.80;8.90;;;28.90;92.30;;;;;;4971186;28;20579;-76
2021/07/19 12:07:06;;;;;;;9.10;8.20;;;28.90;92.20;;;;;;4972459;28;20682;-77
2021/07/19 12:09:32;;;;;;;8.77;7.97;;;29.00;92.00;;;;;;4956786;28;20582;-77
2021/07/19 12:12:00;;;;;;;8.17;7.40;;;29.00;91.90;;;;;;4974477;28;20576;-78
2021/07/19 12:14:27;;;;;;;9.60;8.70;;;28.90;91.40;;;;;;4974820;28;21244;-76
2021/07/19 12:16:53;;;;;;;7.67;6.97;;;28.80;91.10;;;;;;4974789;28;20579;-77
2021/07/19 12:19:20;;;;;;;7.50;6.80;;;28.70;90.70;;;;;;4976116;28;20581;-76
2021/07/19 12:21:50;;;;;;;7.70;6.97;;;28.60;90.70;;;;;;4974315;28;20211;-77
2021/07/19 12:24:17;;;;;;;8.60;7.83;;;28.50;90.60;;;;;;4975845;28;20598;-77
2021/07/19 12:26:47;;;;;;;8.10;7.30;;;28.40;90.50;;;;;;4937434;29;20596;-76
2021/07/19 12:29:14;;;;;;;8.17;6.90;;;28.30;90.80;;;;;;4937240;29;20593;-75
2021/07/19 12:31:43;;;;;;;8.23;7.33;;;28.30;90.80;;;;;;4920469;29;20599;-76
2021/07/19 12:34:23;;;;;;;7.10;6.50;;;28.20;90.30;;;;;;4936160;29;20609;-77
2021/07/19 12:36:51;;;;;;;8.10;7.30;;;28.20;90.80;;;;;;4937221;29;20579;-77
2021/07/19 12:39:21;;;;;;;8.97;8.07;;;28.20;90.60;;;;;;4935588;29;20639;-76
2021/07/19 12:41:48;;;;;;;9.93;8.47;;;28.20;90.30;;;;;;4936924;29;20991;-76
2021/07/19 12:44:14;;;;;;;8.90;7.60;;;28.20;90.10;;;;;;4944451;29;20625;-76
2021/07/19 12:46:45;;;;;;;11.07;9.93;;;28.20;90.20;;;;;;4937227;29;21009;-76
2021/07/19 12:49:11;;;;;;;9.67;8.67;;;28.10;89.70;;;;;;4935571;29;20579;-77
2021/07/19 12:51:39;;;;;;;9.90;9.00;;;28.10;90.20;;;;;;4951582;28;21179;-78
2021/07/19 12:54:09;;;;;;;10.43;9.53;;;28.20;89.70;;;;;;4935448;29;21044;-77
2021/07/19 12:56:39;;;;;;;12.90;10.43;;;28.20;89.00;;;;;;4935761;29;20648;-78